sensor_id;sensor_type;location;lat;lon;timestamp;pressure;altitude;pressure_sealevel;temperature;humidity
56456;BME280;42354;53.218;6.564;2023-04-25T00:02:06;46979.06;;;-142.92;77.92
56456;BME280;42354;53.218;6.564;2023-04-25T00:04:33;46991.38;;;-142.92;77.67
56456;BME280;42354;53.218;6.564;2023-04-25T00:06:59;46983.19;;;-142.92;78.32
56456;BME280;42354;53.218;6.564;2023-04-25T00:09:27;46991.38;;;-142.92;78.42
56456;BME280;42354;53.218;6.564;2023-04-25T00:11:52;46979.06;;;-142.92;78.83
56456;BME280;42354;53.218;6.564;2023-04-25T00:14:18;46989.34;;;-142.92;79.25
56456;BME280;42354;53.218;6.564;2023-04-25T00:16:43;46972.91;;;-142.92;79.45
56456;BME280;42354;53.218;6.564;2023-04-25T00:19:09;46983.19;;;-142.92;79.92
56456;BME280;42354;53.218;6.564;2023-04-25T00:21:34;46962.66;;;-142.92;79.90
56456;BME280;42354;53.218;6.564;2023-04-25T00:24:00;46970.88;;;-142.92;80.38
56456;BME280;42354;53.218;6.564;2023-04-25T00:26:27;47007.81;;;-142.92;80.88
56456;BME280;42354;53.218;6.564;2023-04-25T00:28:52;46987.28;;;-142.92;80.61
56456;BME280;42354;53.218;6.564;2023-04-25T00:31:17;46997.53;;;-142.92;78.66
56456;BME280;42354;53.218;6.564;2023-04-25T00:33:43;46987.28;;;-142.92;78.18
56456;BME280;42354;53.218;6.564;2023-04-25T00:36:08;46991.38;;;-142.92;78.28
56456;BME280;42354;53.218;6.564;2023-04-25T00:38:34;46995.50;;;-142.92;77.63
56456;BME280;42354;53.218;6.564;2023-04-25T00:41:00;46987.28;;;-142.92;76.97
56456;BME280;42354;53.218;6.564;2023-04-25T00:43:26;46979.06;;;-142.92;76.33
56456;BME280;42354;53.218;6.564;2023-04-25T00:45:52;46999.59;;;-142.92;75.65
56456;BME280;42354;53.218;6.564;2023-04-25T00:48:19;46987.28;;;-142.92;75.11
56456;BME280;42354;53.218;6.564;2023-04-25T00:50:59;46987.28;;;-142.92;74.43
56456;BME280;42354;53.218;6.564;2023-04-25T00:53:26;46987.28;;;-142.92;73.96
56456;BME280;42354;53.218;6.564;2023-04-25T00:55:52;46991.38;;;-142.92;72.94
56456;BME280;42354;53.218;6.564;2023-04-25T00:58:19;46997.53;;;-142.92;72.20
56456;BME280;42354;53.218;6.564;2023-04-25T01:00:45;46991.38;;;-142.92;72.43
56456;BME280;42354;53.218;6.564;2023-04-25T01:03:12;46995.50;;;-142.92;73.00
56456;BME280;42354;53.218;6.564;2023-04-25T01:05:40;46968.81;;;-142.92;72.95
56456;BME280;42354;53.218;6.564;2023-04-25T01:08:05;47001.66;;;-142.92;71.85
56456;BME280;42354;53.218;6.564;2023-04-25T01:10:31;46987.28;;;-142.92;70.42
56456;BME280;42354;53.218;6.564;2023-04-25T01:12:56;46985.22;;;-142.92;69.50
56456;BME280;42354;53.218;6.564;2023-04-25T01:15:21;47007.81;;;-142.92;69.04
56456;BME280;42354;53.218;6.564;2023-04-25T01:17:47;46987.28;;;-142.92;68.18
56456;BME280;42354;53.218;6.564;2023-04-25T01:20:15;46991.38;;;-142.92;65.34
56456;BME280;42354;53.218;6.564;2023-04-25T01:22:42;47001.66;;;-142.92;65.25
56456;BME280;42354;53.218;6.564;2023-04-25T01:25:08;46989.34;;;-142.92;63.54
56456;BME280;42354;53.218;6.564;2023-04-25T01:27:34;46987.28;;;-142.92;63.72
56456;BME280;42354;53.218;6.564;2023-04-25T01:30:00;46991.38;;;-142.92;64.68
56456;BME280;42354;53.218;6.564;2023-04-25T01:32:26;46999.59;;;-142.92;64.74
56456;BME280;42354;53.218;6.564;2023-04-25T01:34:52;46993.44;;;-142.92;64.76
56456;BME280;42354;53.218;6.564;2023-04-25T01:37:17;47016.00;;;-142.92;64.41
56456;BME280;42354;53.218;6.564;2023-04-25T01:39:43;46995.50;;;-142.92;65.05
56456;BME280;42354;53.218;6.564;2023-04-25T01:42:09;46987.28;;;-142.92;65.44
56456;BME280;42354;53.218;6.564;2023-04-25T01:44:34;46974.97;;;-142.92;65.43
56456;BME280;42354;53.218;6.564;2023-04-25T01:47:00;46999.59;;;-142.92;65.46
56456;BME280;42354;53.218;6.564;2023-04-25T01:49:26;46981.13;;;-142.92;65.98
56456;BME280;42354;53.218;6.564;2023-04-25T01:51:51;46972.91;;;-142.92;66.36
56456;BME280;42354;53.218;6.564;2023-04-25T01:54:16;46983.19;;;-142.92;67.52
56456;BME280;42354;53.218;6.564;2023-04-25T01:56:43;46970.88;;;-142.92;68.20
56456;BME280;42354;53.218;6.564;2023-04-25T01:59:09;46972.91;;;-142.92;68.62
56456;BME280;42354;53.218;6.564;2023-04-25T02:01:34;46983.19;;;-142.92;69.55
56456;BME280;42354;53.218;6.564;2023-04-25T02:03:59;46999.59;;;-142.92;70.07
56456;BME280;42354;53.218;6.564;2023-04-25T02:06:25;46981.13;;;-142.92;70.33
56456;BME280;42354;53.218;6.564;2023-04-25T02:08:50;47007.81;;;-142.92;70.37
56456;BME280;42354;53.218;6.564;2023-04-25T02:11:16;46999.59;;;-142.92;70.86
56456;BME280;42354;53.218;6.564;2023-04-25T02:13:41;46993.44;;;-142.92;71.04
56456;BME280;42354;53.218;6.564;2023-04-25T02:16:06;47001.66;;;-142.92;70.98
56456;BME280;42354;53.218;6.564;2023-04-25T02:18:32;46977.03;;;-142.92;71.06
56456;BME280;42354;53.218;6.564;2023-04-25T02:20:59;46985.22;;;-142.92;71.17
56456;BME280;42354;53.218;6.564;2023-04-25T02:23:25;46999.59;;;-142.92;70.97
56456;BME280;42354;53.218;6.564;2023-04-25T02:25:50;46981.13;;;-142.92;71.23
56456;BME280;42354;53.218;6.564;2023-04-25T02:28:16;46995.50;;;-142.92;71.32
56456;BME280;42354;53.218;6.564;2023-04-25T02:30:41;46983.19;;;-142.92;72.02
56456;BME280;42354;53.218;6.564;2023-04-25T02:33:07;46974.97;;;-142.92;72.40
56456;BME280;42354;53.218;6.564;2023-04-25T02:35:32;46985.22;;;-142.92;72.62
56456;BME280;42354;53.218;6.564;2023-04-25T02:37:58;46991.38;;;-142.92;73.39
56456;BME280;42354;53.218;6.564;2023-04-25T02:40:23;46983.19;;;-142.92;74.01
56456;BME280;42354;53.218;6.564;2023-04-25T02:42:48;46970.88;;;-142.92;74.45
56456;BME280;42354;53.218;6.564;2023-04-25T02:45:14;46979.06;;;-142.92;74.78
56456;BME280;42354;53.218;6.564;2023-04-25T02:47:39;46974.97;;;-142.92;75.33
56456;BME280;42354;53.218;6.564;2023-04-25T02:50:05;47009.84;;;-142.92;75.71
56456;BME280;42354;53.218;6.564;2023-04-25T02:52:31;46985.22;;;-142.92;76.06
56456;BME280;42354;53.218;6.564;2023-04-25T02:54:56;46987.28;;;-142.92;76.18
56456;BME280;42354;53.218;6.564;2023-04-25T02:57:22;46999.59;;;-142.92;75.88
56456;BME280;42354;53.218;6.564;2023-04-25T02:59:47;46977.03;;;-142.92;75.91
56456;BME280;42354;53.218;6.564;2023-04-25T03:02:12;46977.03;;;-142.92;75.62
56456;BME280;42354;53.218;6.564;2023-04-25T03:04:38;46974.97;;;-142.92;75.73
56456;BME280;42354;53.218;6.564;2023-04-25T03:07:03;46981.13;;;-142.92;74.94
56456;BME280;42354;53.218;6.564;2023-04-25T03:09:29;46985.22;;;-142.92;75.35
56456;BME280;42354;53.218;6.564;2023-04-25T03:11:54;46979.06;;;-142.92;75.65
56456;BME280;42354;53.218;6.564;2023-04-25T03:14:20;47003.69;;;-142.92;75.49
56456;BME280;42354;53.218;6.564;2023-04-25T03:16:45;46989.34;;;-142.92;75.54
56456;BME280;42354;53.218;6.564;2023-04-25T03:19:10;46968.81;;;-142.92;74.86
56456;BME280;42354;53.218;6.564;2023-04-25T03:21:36;46991.38;;;-142.92;74.21
56456;BME280;42354;53.218;6.564;2023-04-25T03:24:03;46989.34;;;-142.92;72.92
56456;BME280;42354;53.218;6.564;2023-04-25T03:26:29;46958.56;;;-142.92;71.57
56456;BME280;42354;53.218;6.564;2023-04-25T03:28:54;46991.38;;;-142.92;71.16
56456;BME280;42354;53.218;6.564;2023-04-25T03:31:20;46985.22;;;-142.92;70.84
56456;BME280;42354;53.218;6.564;2023-04-25T03:33:45;46981.13;;;-142.92;70.80
56456;BME280;42354;53.218;6.564;2023-04-25T03:36:11;46974.97;;;-142.92;71.15
56456;BME280;42354;53.218;6.564;2023-04-25T03:38:36;46995.50;;;-142.92;71.28
56456;BME280;42354;53.218;6.564;2023-04-25T03:41:02;47003.69;;;-142.92;71.59
56456;BME280;42354;53.218;6.564;2023-04-25T03:43:27;46985.22;;;-142.92;71.06
56456;BME280;42354;53.218;6.564;2023-04-25T03:45:53;46968.81;;;-142.92;70.79
56456;BME280;42354;53.218;6.564;2023-04-25T03:48:18;46983.19;;;-142.92;70.86
56456;BME280;42354;53.218;6.564;2023-04-25T03:50:47;46970.88;;;-142.92;71.06
56456;BME280;42354;53.218;6.564;2023-04-25T03:53:12;46977.03;;;-142.92;70.87
56456;BME280;42354;53.218;6.564;2023-04-25T03:55:37;46960.59;;;-142.92;71.18
56456;BME280;42354;53.218;6.564;2023-04-25T03:58:03;46995.50;;;-142.92;70.88
56456;BME280;42354;53.218;6.564;2023-04-25T04:00:28;46997.53;;;-142.92;70.74
56456;BME280;42354;53.218;6.564;2023-04-25T04:02:53;46970.88;;;-142.92;70.86
56456;BME280;42354;53.218;6.564;2023-04-25T04:05:19;46981.13;;;-142.92;71.15
56456;BME280;42354;53.218;6.564;2023-04-25T04:07:44;46972.91;;;-142.92;71.55
56456;BME280;42354;53.218;6.564;2023-04-25T04:10:10;46987.28;;;-142.92;72.10
56456;BME280;42354;53.218;6.564;2023-04-25T04:12:36;46981.13;;;-142.92;72.27
56456;BME280;42354;53.218;6.564;2023-04-25T04:15:06;46987.28;;;-142.92;72.73
56456;BME280;42354;53.218;6.564;2023-04-25T04:17:32;46960.59;;;-142.92;73.44
56456;BME280;42354;53.218;6.564;2023-04-25T04:19:57;46995.50;;;-142.92;73.83
56456;BME280;42354;53.218;6.564;2023-04-25T04:22:23;46974.97;;;-142.92;74.24
56456;BME280;42354;53.218;6.564;2023-04-25T04:24:49;46989.34;;;-142.92;74.80
56456;BME280;42354;53.218;6.564;2023-04-25T04:27:16;46974.97;;;-142.92;75.13
56456;BME280;42354;53.218;6.564;2023-04-25T04:29:42;46995.50;;;-142.92;75.91
56456;BME280;42354;53.218;6.564;2023-04-25T04:32:08;46974.97;;;-142.92;76.37
56456;BME280;42354;53.218;6.564;2023-04-25T04:34:34;47003.69;;;-142.92;76.79
56456;BME280;42354;53.218;6.564;2023-04-25T04:37:00;46989.34;;;-142.92;76.86
56456;BME280;42354;53.218;6.564;2023-04-25T04:39:25;46997.53;;;-142.92;77.19
56456;BME280;42354;53.218;6.564;2023-04-25T04:41:51;46999.59;;;-142.92;77.77
56456;BME280;42354;53.218;6.564;2023-04-25T04:44:16;46989.34;;;-142.92;77.86
56456;BME280;42354;53.218;6.564;2023-04-25T04:46:42;46987.28;;;-142.92;78.04
56456;BME280;42354;53.218;6.564;2023-04-25T04:49:11;46993.44;;;-142.92;77.71
56456;BME280;42354;53.218;6.564;2023-04-25T04:51:38;46987.28;;;-142.92;77.50
56456;BME280;42354;53.218;6.564;2023-04-25T04:54:03;46979.06;;;-142.92;77.10
56456;BME280;42354;53.218;6.564;2023-04-25T04:56:29;46997.53;;;-142.92;77.19
56456;BME280;42354;53.218;6.564;2023-04-25T04:58:59;46974.97;;;-142.92;76.16
56456;BME280;42354;53.218;6.564;2023-04-25T05:01:25;46991.38;;;-142.92;76.13
56456;BME280;42354;53.218;6.564;2023-04-25T05:03:51;46987.28;;;-142.92;75.67
56456;BME280;42354;53.218;6.564;2023-04-25T05:06:18;46972.91;;;-142.92;77.02
56456;BME280;42354;53.218;6.564;2023-04-25T05:08:43;46991.38;;;-142.92;79.72
56456;BME280;42354;53.218;6.564;2023-04-25T05:11:09;46981.13;;;-142.92;81.12
56456;BME280;42354;53.218;6.564;2023-04-25T05:13:35;46997.53;;;-142.92;81.56
56456;BME280;42354;53.218;6.564;2023-04-25T05:16:00;46995.50;;;-142.92;81.43
56456;BME280;42354;53.218;6.564;2023-04-25T05:18:25;46970.88;;;-142.92;80.98
56456;BME280;42354;53.218;6.564;2023-04-25T05:20:51;46972.91;;;-142.92;79.98
56456;BME280;42354;53.218;6.564;2023-04-25T05:23:16;47005.75;;;-142.92;79.34
56456;BME280;42354;53.218;6.564;2023-04-25T05:25:42;46987.28;;;-142.92;78.64
56456;BME280;42354;53.218;6.564;2023-04-25T05:28:07;46991.38;;;-142.92;77.48
56456;BME280;42354;53.218;6.564;2023-04-25T05:30:34;46991.38;;;-142.92;75.79
56456;BME280;42354;53.218;6.564;2023-04-25T05:32:59;46983.19;;;-142.92;74.95
56456;BME280;42354;53.218;6.564;2023-04-25T05:35:26;46977.03;;;-142.92;73.41
56456;BME280;42354;53.218;6.564;2023-04-25T05:37:52;46983.19;;;-142.92;72.64
56456;BME280;42354;53.218;6.564;2023-04-25T05:40:17;46987.28;;;-142.92;72.40
56456;BME280;42354;53.218;6.564;2023-04-25T05:42:42;46981.13;;;-142.92;72.85
56456;BME280;42354;53.218;6.564;2023-04-25T05:45:08;46987.28;;;-142.92;72.25
56456;BME280;42354;53.218;6.564;2023-04-25T05:47:33;46991.38;;;-142.92;72.33
56456;BME280;42354;53.218;6.564;2023-04-25T05:49:59;46985.22;;;-142.92;72.35
56456;BME280;42354;53.218;6.564;2023-04-25T05:52:24;46999.59;;;-142.92;72.24
56456;BME280;42354;53.218;6.564;2023-04-25T05:54:50;46985.22;;;-142.92;73.45
56456;BME280;42354;53.218;6.564;2023-04-25T05:57:26;46974.97;;;-142.92;73.91
56456;BME280;42354;53.218;6.564;2023-04-25T05:59:52;46970.88;;;-142.92;74.12
56456;BME280;42354;53.218;6.564;2023-04-25T06:02:19;46979.06;;;-142.92;72.81
56456;BME280;42354;53.218;6.564;2023-04-25T06:04:46;46987.28;;;-142.92;73.50
56456;BME280;42354;53.218;6.564;2023-04-25T06:07:11;47003.69;;;-142.92;73.75
56456;BME280;42354;53.218;6.564;2023-04-25T06:09:36;46974.97;;;-142.92;73.30
56456;BME280;42354;53.218;6.564;2023-04-25T06:12:04;46985.22;;;-142.92;72.62
56456;BME280;42354;53.218;6.564;2023-04-25T06:14:30;46995.50;;;-142.92;70.41
56456;BME280;42354;53.218;6.564;2023-04-25T06:16:55;46987.28;;;-142.92;69.59
56456;BME280;42354;53.218;6.564;2023-04-25T06:19:21;46977.03;;;-142.92;68.09
56456;BME280;42354;53.218;6.564;2023-04-25T06:21:46;46985.22;;;-142.92;68.64
56456;BME280;42354;53.218;6.564;2023-04-25T06:24:11;46972.91;;;-142.92;68.51
56456;BME280;42354;53.218;6.564;2023-04-25T06:26:37;46987.28;;;-142.92;68.68
56456;BME280;42354;53.218;6.564;2023-04-25T06:29:02;46983.19;;;-142.92;68.40
56456;BME280;42354;53.218;6.564;2023-04-25T06:31:27;46983.19;;;-142.92;67.96
56456;BME280;42354;53.218;6.564;2023-04-25T06:33:54;46985.22;;;-142.92;67.55
56456;BME280;42354;53.218;6.564;2023-04-25T06:36:20;46987.28;;;-142.92;66.40
56456;BME280;42354;53.218;6.564;2023-04-25T06:38:50;46991.38;;;-142.92;65.49
56456;BME280;42354;53.218;6.564;2023-04-25T06:41:16;46981.13;;;-142.92;64.01
56456;BME280;42354;53.218;6.564;2023-04-25T06:43:41;47007.81;;;-142.92;64.55
56456;BME280;42354;53.218;6.564;2023-04-25T06:46:07;47005.75;;;-142.92;64.09
56456;BME280;42354;53.218;6.564;2023-04-25T06:48:32;46974.97;;;-142.92;63.54
56456;BME280;42354;53.218;6.564;2023-04-25T06:50:58;46985.22;;;-142.92;65.10
56456;BME280;42354;53.218;6.564;2023-04-25T06:53:23;46985.22;;;-142.92;65.94
56456;BME280;42354;53.218;6.564;2023-04-25T06:55:48;46995.50;;;-142.92;67.28
56456;BME280;42354;53.218;6.564;2023-04-25T06:58:14;46977.03;;;-142.92;68.33
56456;BME280;42354;53.218;6.564;2023-04-25T07:00:39;46991.38;;;-142.92;66.13
56456;BME280;42354;53.218;6.564;2023-04-25T07:03:04;47005.75;;;-142.92;64.64
56456;BME280;42354;53.218;6.564;2023-04-25T07:05:30;46985.22;;;-142.92;64.49
56456;BME280;42354;53.218;6.564;2023-04-25T07:07:55;46983.19;;;-142.92;63.31
56456;BME280;42354;53.218;6.564;2023-04-25T07:10:21;46991.38;;;-142.92;64.10
56456;BME280;42354;53.218;6.564;2023-04-25T07:12:46;46991.38;;;-142.92;62.34
56456;BME280;42354;53.218;6.564;2023-04-25T07:15:12;46989.34;;;-142.92;62.82
56456;BME280;42354;53.218;6.564;2023-04-25T07:17:37;46999.59;;;-142.92;62.51
56456;BME280;42354;53.218;6.564;2023-04-25T07:20:04;47003.69;;;-142.92;59.10
56456;BME280;42354;53.218;6.564;2023-04-25T07:22:31;46999.59;;;-142.92;57.28
56456;BME280;42354;53.218;6.564;2023-04-25T07:24:57;47011.91;;;-142.92;56.37
56456;BME280;42354;53.218;6.564;2023-04-25T07:27:22;46995.50;;;-142.92;56.75
56456;BME280;42354;53.218;6.564;2023-04-25T07:29:48;46993.44;;;-142.92;57.36
56456;BME280;42354;53.218;6.564;2023-04-25T07:32:13;46997.53;;;-142.92;57.62
56456;BME280;42354;53.218;6.564;2023-04-25T07:34:39;46974.97;;;-142.92;57.91
56456;BME280;42354;53.218;6.564;2023-04-25T07:37:05;46958.56;;;-142.92;58.55
56456;BME280;42354;53.218;6.564;2023-04-25T07:39:30;46970.88;;;-142.92;59.07
56456;BME280;42354;53.218;6.564;2023-04-25T07:41:56;46985.22;;;-142.92;59.27
56456;BME280;42354;53.218;6.564;2023-04-25T07:44:23;46979.06;;;-142.92;59.15
56456;BME280;42354;53.218;6.564;2023-04-25T07:46:49;46981.13;;;-142.92;60.23
56456;BME280;42354;53.218;6.564;2023-04-25T07:49:14;46999.59;;;-142.92;60.73
56456;BME280;42354;53.218;6.564;2023-04-25T07:51:40;46987.28;;;-142.92;57.73
56456;BME280;42354;53.218;6.564;2023-04-25T07:54:06;47005.75;;;-142.92;56.73
56456;BME280;42354;53.218;6.564;2023-04-25T07:56:32;46983.19;;;-142.92;55.97
56456;BME280;42354;53.218;6.564;2023-04-25T07:58:57;46981.13;;;-142.92;56.23
56456;BME280;42354;53.218;6.564;2023-04-25T08:01:23;46987.28;;;-142.92;56.10
56456;BME280;42354;53.218;6.564;2023-04-25T08:03:48;46987.28;;;-142.92;54.63
56456;BME280;42354;53.218;6.564;2023-04-25T08:06:14;46989.34;;;-142.92;53.93
56456;BME280;42354;53.218;6.564;2023-04-25T08:08:40;47009.84;;;-142.92;56.30
56456;BME280;42354;53.218;6.564;2023-04-25T08:11:06;46991.38;;;-142.92;59.31
56456;BME280;42354;53.218;6.564;2023-04-25T08:13:32;46983.19;;;-142.92;65.85
56456;BME280;42354;53.218;6.564;2023-04-25T08:15:57;46968.81;;;-142.92;70.05
56456;BME280;42354;53.218;6.564;2023-04-25T08:18:22;46989.34;;;-142.92;71.46
56456;BME280;42354;53.218;6.564;2023-04-25T08:20:48;46983.19;;;-142.92;71.87
56456;BME280;42354;53.218;6.564;2023-04-25T08:23:14;46977.03;;;-142.92;71.17
56456;BME280;42354;53.218;6.564;2023-04-25T08:25:40;46987.28;;;-142.92;70.44
56456;BME280;42354;53.218;6.564;2023-04-25T08:28:05;46974.97;;;-142.92;70.77
56456;BME280;42354;53.218;6.564;2023-04-25T08:30:31;46974.97;;;-142.92;69.54
56456;BME280;42354;53.218;6.564;2023-04-25T08:32:56;46989.34;;;-142.92;68.47
56456;BME280;42354;53.218;6.564;2023-04-25T08:35:22;46966.75;;;-142.92;67.23
56456;BME280;42354;53.218;6.564;2023-04-25T08:37:48;46966.75;;;-142.92;64.57
56456;BME280;42354;53.218;6.564;2023-04-25T08:40:15;46989.34;;;-142.92;62.58
56456;BME280;42354;53.218;6.564;2023-04-25T08:42:44;46999.59;;;-142.92;62.15
56456;BME280;42354;53.218;6.564;2023-04-25T08:45:10;46995.50;;;-142.92;61.27
56456;BME280;42354;53.218;6.564;2023-04-25T08:47:38;46985.22;;;-142.92;60.94
56456;BME280;42354;53.218;6.564;2023-04-25T08:50:05;47003.69;;;-142.92;61.27
56456;BME280;42354;53.218;6.564;2023-04-25T08:52:36;47003.69;;;-142.92;60.54
56456;BME280;42354;53.218;6.564;2023-04-25T08:55:02;46979.06;;;-142.92;60.09
56456;BME280;42354;53.218;6.564;2023-04-25T08:57:31;46985.22;;;-142.92;59.45
56456;BME280;42354;53.218;6.564;2023-04-25T08:59:57;46991.38;;;-142.92;59.81
56456;BME280;42354;53.218;6.564;2023-04-25T09:02:24;46987.28;;;-142.92;59.96
56456;BME280;42354;53.218;6.564;2023-04-25T09:04:50;46995.50;;;-142.92;60.05
56456;BME280;42354;53.218;6.564;2023-04-25T09:07:15;46991.38;;;-142.92;60.70
56456;BME280;42354;53.218;6.564;2023-04-25T09:09:43;46999.59;;;-142.92;59.08
56456;BME280;42354;53.218;6.564;2023-04-25T09:12:09;46983.19;;;-142.92;56.42
56456;BME280;42354;53.218;6.564;2023-04-25T09:14:35;46977.03;;;-142.92;57.46
56456;BME280;42354;53.218;6.564;2023-04-25T09:17:02;47011.91;;;-142.92;58.08
56456;BME280;42354;53.218;6.564;2023-04-25T09:19:33;46981.13;;;-142.92;58.04
56456;BME280;42354;53.218;6.564;2023-04-25T09:22:04;46993.44;;;-142.92;57.73
56456;BME280;42354;53.218;6.564;2023-04-25T09:24:38;47001.66;;;-142.92;56.63
56456;BME280;42354;53.218;6.564;2023-04-25T09:27:05;46983.19;;;-142.92;53.43
56456;BME280;42354;53.218;6.564;2023-04-25T09:29:35;46989.34;;;-142.92;54.51
56456;BME280;42354;53.218;6.564;2023-04-25T09:32:21;46991.38;;;-142.92;59.46
56456;BME280;42354;53.218;6.564;2023-04-25T09:34:52;46983.19;;;-142.92;63.29
56456;BME280;42354;53.218;6.564;2023-04-25T09:37:18;46974.97;;;-142.92;64.52
56456;BME280;42354;53.218;6.564;2023-04-25T09:39:45;46962.66;;;-142.92;65.34
56456;BME280;42354;53.218;6.564;2023-04-25T09:42:13;47001.66;;;-142.92;65.54
56456;BME280;42354;53.218;6.564;2023-04-25T09:44:46;46983.19;;;-142.92;64.63
56456;BME280;42354;53.218;6.564;2023-04-25T09:47:14;46991.38;;;-142.92;60.15
56456;BME280;42354;53.218;6.564;2023-04-25T09:49:41;46987.28;;;-142.92;57.86
56456;BME280;42354;53.218;6.564;2023-04-25T09:52:08;46995.50;;;-142.92;54.82
56456;BME280;42354;53.218;6.564;2023-04-25T09:54:33;46989.34;;;-142.92;53.84
56456;BME280;42354;53.218;6.564;2023-04-25T09:57:04;46985.22;;;-142.92;53.41
56456;BME280;42354;53.218;6.564;2023-04-25T09:59:34;46995.50;;;-142.92;54.30
56456;BME280;42354;53.218;6.564;2023-04-25T10:02:03;47007.81;;;-142.92;53.14
56456;BME280;42354;53.218;6.564;2023-04-25T10:04:30;46989.34;;;-142.92;52.46
56456;BME280;42354;53.218;6.564;2023-04-25T10:06:58;46985.22;;;-142.92;51.85
56456;BME280;42354;53.218;6.564;2023-04-25T10:09:25;46997.53;;;-142.92;52.58
56456;BME280;42354;53.218;6.564;2023-04-25T10:11:51;46991.38;;;-142.92;52.66
56456;BME280;42354;53.218;6.564;2023-04-25T10:14:18;46989.34;;;-142.92;51.38
56456;BME280;42354;53.218;6.564;2023-04-25T10:16:45;46995.50;;;-142.92;54.21
56456;BME280;42354;53.218;6.564;2023-04-25T10:19:10;46995.50;;;-142.92;56.42
56456;BME280;42354;53.218;6.564;2023-04-25T10:21:43;47003.69;;;-142.92;56.85
56456;BME280;42354;53.218;6.564;2023-04-25T10:24:10;46979.06;;;-142.92;57.71
56456;BME280;42354;53.218;6.564;2023-04-25T10:26:35;46991.38;;;-142.92;59.14
56456;BME280;42354;53.218;6.564;2023-04-25T10:29:02;46989.34;;;-142.92;59.40
56456;BME280;42354;53.218;6.564;2023-04-25T10:31:29;46987.28;;;-142.92;58.27
56456;BME280;42354;53.218;6.564;2023-04-25T10:33:56;46995.50;;;-142.92;57.15
56456;BME280;42354;53.218;6.564;2023-04-25T10:36:23;46995.50;;;-142.92;56.14
56456;BME280;42354;53.218;6.564;2023-04-25T10:38:49;46987.28;;;-142.92;54.58
56456;BME280;42354;53.218;6.564;2023-04-25T10:41:20;47007.81;;;-142.92;52.94
56456;BME280;42354;53.218;6.564;2023-04-25T10:43:47;47007.81;;;-142.92;51.77
56456;BME280;42354;53.218;6.564;2023-04-25T10:48:50;46981.13;;;-142.92;55.59
56456;BME280;42354;53.218;6.564;2023-04-25T10:51:17;46997.53;;;-142.92;61.70
56456;BME280;42354;53.218;6.564;2023-04-25T10:53:48;46997.53;;;-142.92;64.72
56456;BME280;42354;53.218;6.564;2023-04-25T10:56:23;46958.56;;;-142.92;65.62
56456;BME280;42354;53.218;6.564;2023-04-25T10:58:48;46974.97;;;-142.92;65.12
56456;BME280;42354;53.218;6.564;2023-04-25T11:01:19;47001.66;;;-142.92;65.45
56456;BME280;42354;53.218;6.564;2023-04-25T11:03:45;46991.38;;;-142.92;64.44
56456;BME280;42354;53.218;6.564;2023-04-25T11:06:29;46979.06;;;-142.92;62.36
56456;BME280;42354;53.218;6.564;2023-04-25T11:08:54;46985.22;;;-142.92;60.37
56456;BME280;42354;53.218;6.564;2023-04-25T11:11:20;46977.03;;;-142.92;52.46
56456;BME280;42354;53.218;6.564;2023-04-25T11:13:49;46995.50;;;-142.92;51.93
56456;BME280;42354;53.218;6.564;2023-04-25T11:16:15;46989.34;;;-142.92;47.50
56456;BME280;42354;53.218;6.564;2023-04-25T11:18:42;47007.81;;;-142.92;46.06
56456;BME280;42354;53.218;6.564;2023-04-25T11:21:07;46974.97;;;-142.92;46.21
56456;BME280;42354;53.218;6.564;2023-04-25T11:23:33;46987.28;;;-142.92;46.84
56456;BME280;42354;53.218;6.564;2023-04-25T11:25:58;46989.34;;;-142.92;45.63
56456;BME280;42354;53.218;6.564;2023-04-25T11:28:26;46991.38;;;-142.92;45.01
56456;BME280;42354;53.218;6.564;2023-04-25T11:30:52;46964.72;;;-142.92;43.98
56456;BME280;42354;53.218;6.564;2023-04-25T11:33:17;46977.03;;;-142.92;43.70
56456;BME280;42354;53.218;6.564;2023-04-25T11:35:43;46987.28;;;-142.92;44.93
56456;BME280;42354;53.218;6.564;2023-04-25T11:38:08;46981.13;;;-142.92;44.00
56456;BME280;42354;53.218;6.564;2023-04-25T11:40:35;46987.28;;;-142.92;42.45
56456;BME280;42354;53.218;6.564;2023-04-25T11:43:01;46989.34;;;-142.92;43.50
56456;BME280;42354;53.218;6.564;2023-04-25T11:45:27;46995.50;;;-142.92;44.35
56456;BME280;42354;53.218;6.564;2023-04-25T11:47:54;46995.50;;;-142.92;45.45
56456;BME280;42354;53.218;6.564;2023-04-25T11:50:20;46995.50;;;-142.92;43.43
56456;BME280;42354;53.218;6.564;2023-04-25T11:52:46;46987.28;;;-142.92;41.98
56456;BME280;42354;53.218;6.564;2023-04-25T11:55:19;46991.38;;;-142.92;41.98
56456;BME280;42354;53.218;6.564;2023-04-25T11:57:53;46977.03;;;-142.92;42.48
56456;BME280;42354;53.218;6.564;2023-04-25T12:00:21;46981.13;;;-142.92;41.66
56456;BME280;42354;53.218;6.564;2023-04-25T12:02:51;46991.38;;;-142.92;42.09
56456;BME280;42354;53.218;6.564;2023-04-25T12:05:17;47003.69;;;-142.92;40.97
56456;BME280;42354;53.218;6.564;2023-04-25T12:07:43;46966.75;;;-142.92;42.04
56456;BME280;42354;53.218;6.564;2023-04-25T12:10:12;46997.53;;;-142.92;41.70
56456;BME280;42354;53.218;6.564;2023-04-25T12:12:41;46999.59;;;-142.92;41.29
56456;BME280;42354;53.218;6.564;2023-04-25T12:15:15;46981.13;;;-142.92;42.28
56456;BME280;42354;53.218;6.564;2023-04-25T12:17:47;46983.19;;;-142.92;42.81
56456;BME280;42354;53.218;6.564;2023-04-25T12:20:18;46972.91;;;-142.92;41.69
56456;BME280;42354;53.218;6.564;2023-04-25T12:22:51;46979.06;;;-142.92;41.28
56456;BME280;42354;53.218;6.564;2023-04-25T12:25:43;46999.59;;;-142.92;39.42
56456;BME280;42354;53.218;6.564;2023-04-25T12:28:16;46987.28;;;-142.92;39.70
56456;BME280;42354;53.218;6.564;2023-04-25T12:33:37;46979.06;;;-142.92;42.47
56456;BME280;42354;53.218;6.564;2023-04-25T12:36:04;46983.19;;;-142.92;42.73
56456;BME280;42354;53.218;6.564;2023-04-25T12:38:39;46997.53;;;-142.92;42.20
56456;BME280;42354;53.218;6.564;2023-04-25T12:41:05;46966.75;;;-142.92;41.74
56456;BME280;42354;53.218;6.564;2023-04-25T12:43:31;46995.50;;;-142.92;42.36